Time;durP1;ratioP1;P1;durP2;ratioP2;P2;SDS_P1;SDS_P2;PMS_P1;PMS_P2;Temp;Humidity;BMP_temperature;BMP_pressure;BME280_temperature;BME280_humidity;BME280_pressure;Samples;Min_cycle;Max_cycle;Signal;HPM_P1;HPM_P2
2021/07/19 00:00:28;;;;;;;0.50;0.50;;;;;;;;;;4996499;28;20077;-77
2021/07/19 00:02:54;;;;;;;0.57;0.32;;;;;;;;;;5008635;28;20034;-77
2021/07/19 00:05:20;;;;;;;0.40;0.40;;;;;;;;;;5016727;28;20037;-76
2021/07/19 00:07:46;;;;;;;0.40;0.40;;;;;;;;;;5012469;28;20057;-77
2021/07/19 00:10:12;;;;;;;0.60;0.60;;;;;;;;;;5000490;28;20091;-77
2021/07/19 00:12:38;;;;;;;0.50;0.50;;;;;;;;;;5016938;28;20100;-77
2021/07/19 00:15:04;;;;;;;0.40;0.40;;;;;;;;;;4991692;28;20484;-77
2021/07/19 00:17:30;;;;;;;0.63;0.50;;;;;;;;;;4987514;28;20038;-77
2021/07/19 00:19:57;;;;;;;0.50;0.50;;;;;;;;;;4990349;28;20032;-77
2021/07/19 00:22:23;;;;;;;1.10;0.50;;;;;;;;;;4987721;28;20079;-78
2021/07/19 00:24:49;;;;;;;0.65;0.65;;;;;;;;;;4998145;28;20030;-77
2021/07/19 00:27:14;;;;;;;0.50;0.50;;;;;;;;;;4998441;28;20546;-77
2021/07/19 00:29:39;;;;;;;0.50;0.50;;;;;;;;;;5003460;28;20038;-78
2021/07/19 00:32:06;;;;;;;0.43;0.43;;;;;;;;;;4999296;28;20029;-78
2021/07/19 00:34:31;;;;;;;0.43;0.43;;;;;;;;;;4995060;28;20022;-77
2021/07/19 00:36:57;;;;;;;0.47;0.47;;;;;;;;;;4996896;28;20084;-77
2021/07/19 00:39:27;;;;;;;0.43;0.43;;;;;;;;;;4988626;28;20484;-77
2021/07/19 00:41:52;;;;;;;0.40;0.40;;;;;;;;;;5006456;28;20041;-76
2021/07/19 00:44:21;;;;;;;0.50;0.50;;;;;;;;;;4981475;28;20030;-76
2021/07/19 00:46:50;;;;;;;0.50;0.50;;;;;;;;;;4995210;28;20496;-76
2021/07/19 00:49:16;;;;;;;0.50;0.50;;;;;;;;;;4987455;28;20034;-76
2021/07/19 00:51:42;;;;;;;0.52;0.50;;;;;;;;;;4989693;28;20025;-77
2021/07/19 00:54:15;;;;;;;0.50;0.50;;;;;;;;;;5024077;28;20030;-77
2021/07/19 00:56:41;;;;;;;0.57;0.57;;;;;;;;;;4993518;28;20412;-77
2021/07/19 00:59:09;;;;;;;0.50;0.50;;;;;;;;;;5014749;28;20125;-77
2021/07/19 01:01:38;;;;;;;0.50;0.50;;;;;;;;;;5007113;28;20034;-77
2021/07/19 01:04:05;;;;;;;0.50;0.50;;;;;;;;;;5008628;28;20069;-78
2021/07/19 01:06:32;;;;;;;0.45;0.45;;;;;;;;;;4991577;28;20030;-78
2021/07/19 01:08:57;;;;;;;0.50;0.50;;;;;;;;;;4990969;28;20519;-78
2021/07/19 01:11:24;;;;;;;0.50;0.50;;;;;;;;;;5007132;28;20061;-77
2021/07/19 01:13:50;;;;;;;0.50;0.50;;;;;;;;;;4990640;28;20071;-78
2021/07/19 01:16:16;;;;;;;0.47;0.47;;;;;;;;;;5004722;28;20076;-78
2021/07/19 01:18:43;;;;;;;0.45;0.45;;;;;;;;;;4981523;28;20034;-76
2021/07/19 01:21:17;;;;;;;0.52;0.52;;;;;;;;;;4990738;28;20124;-79
2021/07/19 01:23:45;;;;;;;0.45;0.45;;;;;;;;;;5006957;28;20535;-78
2021/07/19 01:26:18;;;;;;;0.40;0.40;;;;;;;;;;5010070;28;20480;-78
2021/07/19 01:28:44;;;;;;;0.50;0.50;;;;;;;;;;4983082;28;20053;-77
2021/07/19 01:31:12;;;;;;;0.45;0.45;;;;;;;;;;4998363;28;20026;-78
2021/07/19 01:33:38;;;;;;;0.60;0.57;;;;;;;;;;4993888;28;20593;-78
2021/07/19 01:36:05;;;;;;;0.45;0.45;;;;;;;;;;4995878;28;20113;-77
2021/07/19 01:38:31;;;;;;;0.50;0.50;;;;;;;;;;5008702;28;20847;-78
2021/07/19 01:40:58;;;;;;;0.50;0.50;;;;;;;;;;4990497;28;20026;-78
2021/07/19 01:43:25;;;;;;;0.43;0.43;;;;;;;;;;5009245;28;20030;-78
2021/07/19 01:45:52;;;;;;;0.50;0.50;;;;;;;;;;5018762;28;20007;-78
2021/07/19 01:48:22;;;;;;;0.50;0.50;;;;;;;;;;5005142;28;20034;-78
2021/07/19 01:50:49;;;;;;;0.50;0.50;;;;;;;;;;5005410;28;20519;-78
2021/07/19 01:53:17;;;;;;;0.30;0.30;;;;;;;;;;5004252;28;20030;-78
2021/07/19 01:55:44;;;;;;;0.35;0.35;;;;;;;;;;5002348;28;20077;-78
2021/07/19 01:58:13;;;;;;;0.40;0.40;;;;;;;;;;5008529;28;20022;-77
2021/07/19 02:00:48;;;;;;;0.63;0.40;;;;;;;;;;5008879;28;20066;-78
2021/07/19 02:03:14;;;;;;;0.40;0.40;;;;;;;;;;5005470;28;20065;-78
2021/07/19 02:05:48;;;;;;;0.35;0.35;;;;;;;;;;4985555;28;20033;-78
2021/07/19 02:08:18;;;;;;;0.40;0.40;;;;;;;;;;4993384;28;20036;-77
2021/07/19 02:11:01;;;;;;;0.65;0.65;;;;;;;;;;4998159;28;20046;-78
2021/07/19 02:13:27;;;;;;;0.47;0.47;;;;;;;;;;5001137;28;20046;-77
2021/07/19 02:15:54;;;;;;;0.40;0.40;;;;;;;;;;4992856;28;20072;-78
2021/07/19 02:18:24;;;;;;;0.50;0.50;;;;;;;;;;4991788;28;20030;-78
2021/07/19 02:20:53;;;;;;;0.50;0.50;;;;;;;;;;5004885;28;20038;-78
2021/07/19 02:23:22;;;;;;;0.63;0.50;;;;;;;;;;4997653;28;20038;-78
2021/07/19 02:26:07;;;;;;;0.60;0.60;;;;;;;;;;5010104;28;20603;-77
2021/07/19 02:28:33;;;;;;;1.13;0.70;;;;;;;;;;5013898;28;20034;-77
2021/07/19 02:31:02;;;;;;;0.50;0.50;;;;;;;;;;5009038;28;20291;-77
2021/07/19 02:33:28;;;;;;;;;;;;;;;;;;5005549;28;20084;-77
2021/07/19 02:35:54;;;;;;;0.50;0.50;;;;;;;;;;4989988;28;19913;-77
2021/07/19 02:38:27;;;;;;;0.57;0.57;;;;;;;;;;4984632;28;20031;-78
2021/07/19 02:41:02;;;;;;;0.57;0.57;;;;;;;;;;5007284;28;20038;-77
2021/07/19 02:43:29;;;;;;;0.40;0.40;;;;;;;;;;5005883;28;20435;-77
2021/07/19 02:45:57;;;;;;;0.75;0.63;;;;;;;;;;4992994;28;20057;-77
2021/07/19 02:48:27;;;;;;;0.68;0.68;;;;;;;;;;5007751;28;20455;-78
2021/07/19 02:50:53;;;;;;;0.55;0.55;;;;;;;;;;5009395;28;20036;-77
2021/07/19 02:53:21;;;;;;;0.50;0.50;;;;;;;;;;4977860;28;20030;-78
2021/07/19 02:55:48;;;;;;;1.93;0.70;;;;;;;;;;4998008;28;20706;-77
2021/07/19 02:58:14;;;;;;;0.63;0.60;;;;;;;;;;4991776;28;20268;-76
2021/07/19 03:00:40;;;;;;;0.47;0.47;;;;;;;;;;5008247;28;20036;-77
2021/07/19 03:03:07;;;;;;;0.40;0.40;;;;;;;;;;4989749;28;20034;-77
2021/07/19 03:05:37;;;;;;;0.50;0.50;;;;;;;;;;5007819;28;20036;-77
2021/07/19 03:08:05;;;;;;;0.40;0.40;;;;;;;;;;4992105;28;20062;-77
2021/07/19 03:10:57;;;;;;;0.68;0.68;;;;;;;;;;4973574;28;20516;-78
2021/07/19 03:13:30;;;;;;;0.63;0.60;;;;;;;;;;4993931;28;20563;-78
2021/07/19 03:15:57;;;;;;;0.40;0.40;;;;;;;;;;4991142;28;20041;-77
2021/07/19 03:18:23;;;;;;;0.52;0.52;;;;;;;;;;5007298;28;20030;-77
2021/07/19 03:20:49;;;;;;;0.43;0.43;;;;;;;;;;5002027;28;20168;-78
2021/07/19 03:23:15;;;;;;;0.55;0.55;;;;;;;;;;4990242;28;20369;-76
2021/07/19 03:25:42;;;;;;;0.50;0.50;;;;;;;;;;4983503;28;20037;-77
2021/07/19 03:28:08;;;;;;;0.50;0.50;;;;;;;;;;5008585;28;20095;-77
2021/07/19 03:30:34;;;;;;;1.33;0.68;;;;;;;;;;4989352;28;20042;-77
2021/07/19 03:33:01;;;;;;;0.55;0.55;;;;;;;;;;5007589;28;20033;-76
2021/07/19 03:35:27;;;;;;;0.52;0.52;;;;;;;;;;5004117;28;20033;-77
2021/07/19 03:37:56;;;;;;;0.40;0.40;;;;;;;;;;5001362;28;20034;-77
2021/07/19 03:40:24;;;;;;;0.52;0.52;;;;;;;;;;5007981;28;20172;-77
2021/07/19 03:42:57;;;;;;;0.60;0.60;;;;;;;;;;4997422;28;20041;-76
2021/07/19 03:45:23;;;;;;;0.50;0.50;;;;;;;;;;4984194;28;20105;-77
2021/07/19 03:47:49;;;;;;;0.50;0.50;;;;;;;;;;5007498;28;20271;-77
2021/07/19 03:50:16;;;;;;;0.50;0.50;;;;;;;;;;5004585;28;20026;-77
2021/07/19 03:52:46;;;;;;;0.40;0.40;;;;;;;;;;5002016;28;20030;-77
2021/07/19 03:55:17;;;;;;;0.50;0.50;;;;;;;;;;4999286;28;20420;-78
2021/07/19 03:57:45;;;;;;;0.40;0.40;;;;;;;;;;5006343;28;20026;-76
2021/07/19 04:00:17;;;;;;;0.50;0.50;;;;;;;;;;4998510;28;20049;-77
2021/07/19 04:02:54;;;;;;;0.60;0.60;;;;;;;;;;4992465;28;20508;-77
2021/07/19 04:05:24;;;;;;;0.50;0.50;;;;;;;;;;5002247;28;20030;-77
2021/07/19 04:08:09;;;;;;;0.50;0.50;;;;;;;;;;4992445;28;20034;-77
2021/07/19 04:10:36;;;;;;;0.40;0.40;;;;;;;;;;4988939;28;20030;-77
2021/07/19 04:13:06;;;;;;;0.50;0.50;;;;;;;;;;4982127;28;20138;-77
2021/07/19 04:15:34;;;;;;;0.40;0.40;;;;;;;;;;5005022;28;20026;-77
2021/07/19 04:17:59;;;;;;;0.40;0.40;;;;;;;;;;4999311;28;20038;-77
2021/07/19 04:20:35;;;;;;;0.50;0.50;;;;;;;;;;5004922;28;20316;-77
2021/07/19 04:23:02;;;;;;;0.50;0.50;;;;;;;;;;5001834;28;20034;-76
2021/07/19 04:25:28;;;;;;;0.52;0.52;;;;;;;;;;4997000;28;20073;-77
2021/07/19 04:27:57;;;;;;;0.57;0.57;;;;;;;;;;5005732;28;20038;-77
2021/07/19 04:30:38;;;;;;;0.50;0.50;;;;;;;;;;5004475;28;20022;-77
2021/07/19 04:33:05;;;;;;;0.50;0.50;;;;;;;;;;5003982;28;20484;-76
2021/07/19 04:35:31;;;;;;;0.60;0.60;;;;;;;;;;5007913;28;20029;-77
2021/07/19 04:37:57;;;;;;;0.70;0.70;;;;;;;;;;5002196;28;20052;-77
2021/07/19 04:40:23;;;;;;;1.25;0.80;;;;;;;;;;4981883;28;20030;-77
2021/07/19 04:42:51;;;;;;;0.52;0.52;;;;;;;;;;5004733;28;20156;-77
2021/07/19 04:45:18;;;;;;;0.70;0.70;;;;;;;;;;4990714;28;20136;-77
2021/07/19 04:47:44;;;;;;;0.88;0.60;;;;;;;;;;5006951;28;20025;-77
2021/07/19 04:50:12;;;;;;;0.50;0.50;;;;;;;;;;5005153;28;20064;-77
2021/07/19 04:52:49;;;;;;;1.35;0.63;;;;;;;;;;5000750;28;20038;-77
2021/07/19 04:55:20;;;;;;;0.50;0.50;;;;;;;;;;4992557;28;20040;-76
2021/07/19 04:57:49;;;;;;;0.60;0.60;;;;;;;;;;4982741;28;20042;-77
2021/07/19 05:00:15;;;;;;;0.60;0.60;;;;;;;;;;5000562;28;20441;-77
2021/07/19 05:02:42;;;;;;;0.47;0.47;;;;;;;;;;4978873;28;20038;-76
2021/07/19 05:05:10;;;;;;;0.67;0.67;;;;;;;;;;5005312;28;20025;-76
2021/07/19 05:07:37;;;;;;;1.30;0.70;;;;;;;;;;4997615;28;20027;-76
2021/07/19 05:10:04;;;;;;;0.50;0.50;;;;;;;;;;5004346;28;20034;-76
2021/07/19 05:12:30;;;;;;;0.55;0.55;;;;;;;;;;4983791;28;20037;-78
2021/07/19 05:14:56;;;;;;;0.50;0.50;;;;;;;;;;4983268;28;20040;-76
2021/07/19 05:17:24;;;;;;;0.50;0.50;;;;;;;;;;5006865;28;20102;-77
2021/07/19 05:19:49;;;;;;;0.40;0.40;;;;;;;;;;5004556;28;20405;-77
2021/07/19 05:22:15;;;;;;;0.50;0.50;;;;;;;;;;5003496;28;20041;-77
2021/07/19 05:24:42;;;;;;;0.45;0.45;;;;;;;;;;4982354;28;20080;-77
2021/07/19 05:27:08;;;;;;;0.60;0.60;;;;;;;;;;4996934;28;20030;-77
2021/07/19 05:29:34;;;;;;;0.40;0.40;;;;;;;;;;4996969;28;20627;-76
2021/07/19 05:32:00;;;;;;;0.43;0.43;;;;;;;;;;5003188;28;20026;-76
2021/07/19 05:34:25;;;;;;;0.43;0.43;;;;;;;;;;5005203;28;20031;-77
2021/07/19 05:36:51;;;;;;;0.40;0.40;;;;;;;;;;4983836;28;20399;-76
2021/07/19 05:39:16;;;;;;;0.45;0.45;;;;;;;;;;4992852;28;20607;-77
2021/07/19 05:41:44;;;;;;;0.75;0.60;;;;;;;;;;5004699;28;20029;-78
2021/07/19 05:44:10;;;;;;;0.50;0.50;;;;;;;;;;4994443;28;20372;-77
2021/07/19 05:46:36;;;;;;;0.40;0.40;;;;;;;;;;4998827;28;20033;-78
2021/07/19 05:49:02;;;;;;;0.40;0.40;;;;;;;;;;5010084;28;20034;-77
2021/07/19 05:51:27;;;;;;;0.40;0.40;;;;;;;;;;4999225;28;20037;-78
2021/07/19 05:53:53;;;;;;;0.50;0.50;;;;;;;;;;5008626;28;20038;-78
2021/07/19 05:56:18;;;;;;;0.50;0.50;;;;;;;;;;5001880;28;20113;-76
2021/07/19 05:58:43;;;;;;;0.50;0.50;;;;;;;;;;5004205;28;20084;-74
2021/07/19 06:01:09;;;;;;;0.70;0.55;;;;;;;;;;5004806;28;20068;-73
2021/07/19 06:03:34;;;;;;;0.40;0.40;;;;;;;;;;4992684;28;20040;-74
2021/07/19 06:06:00;;;;;;;0.60;0.60;;;;;;;;;;4991182;28;20117;-76
2021/07/19 06:08:25;;;;;;;0.45;0.45;;;;;;;;;;4998193;28;20400;-76
2021/07/19 06:10:50;;;;;;;0.50;0.50;;;;;;;;;;4980688;28;20104;-76
2021/07/19 06:13:16;;;;;;;0.60;0.60;;;;;;;;;;4998498;28;20022;-77
2021/07/19 06:15:41;;;;;;;0.50;0.50;;;;;;;;;;5009626;28;20018;-75
2021/07/19 06:18:09;;;;;;;0.40;0.40;;;;;;;;;;5002724;28;20555;-75
2021/07/19 06:20:34;;;;;;;0.52;0.45;;;;;;;;;;4999472;28;20034;-76
2021/07/19 06:23:00;;;;;;;0.52;0.52;;;;;;;;;;5004748;28;20400;-75
2021/07/19 06:25:29;;;;;;;0.40;0.40;;;;;;;;;;5009220;28;20061;-76
2021/07/19 06:27:54;;;;;;;0.50;0.50;;;;;;;;;;4995465;28;20049;-75
2021/07/19 06:30:19;;;;;;;0.60;0.60;;;;;;;;;;4999051;28;20026;-75
2021/07/19 06:32:45;;;;;;;0.90;0.50;;;;;;;;;;5004517;28;20547;-76
2021/07/19 06:35:10;;;;;;;0.60;0.60;;;;;;;;;;4999681;28;20516;-76
2021/07/19 06:37:36;;;;;;;0.40;0.40;;;;;;;;;;4995674;28;20034;-75
2021/07/19 06:40:02;;;;;;;0.30;0.30;;;;;;;;;;5008197;28;20561;-75
2021/07/19 06:42:28;;;;;;;0.40;0.40;;;;;;;;;;5012734;28;20025;-75
2021/07/19 06:44:56;;;;;;;0.47;0.40;;;;;;;;;;4998838;28;20141;-75
2021/07/19 06:47:22;;;;;;;0.40;0.40;;;;;;;;;;4997861;28;20697;-75
2021/07/19 06:49:47;;;;;;;0.50;0.50;;;;;;;;;;5004697;28;20149;-76
2021/07/19 06:52:13;;;;;;;0.30;0.30;;;;;;;;;;4989814;28;20042;-75
2021/07/19 06:54:38;;;;;;;0.32;0.32;;;;;;;;;;4998158;28;20098;-72
2021/07/19 06:57:04;;;;;;;1.73;0.43;;;;;;;;;;5003052;28;20034;-72
2021/07/19 06:59:29;;;;;;;0.40;0.40;;;;;;;;;;4995475;28;20030;-73
2021/07/19 07:01:55;;;;;;;0.57;0.57;;;;;;;;;;5001900;28;20061;-72
2021/07/19 07:04:20;;;;;;;0.60;0.60;;;;;;;;;;5001808;28;20117;-72
2021/07/19 07:06:45;;;;;;;0.73;0.60;;;;;;;;;;4995013;28;20091;-72
2021/07/19 07:09:10;;;;;;;0.40;0.40;;;;;;;;;;5007650;28;20034;-72
2021/07/19 07:11:36;;;;;;;0.32;0.32;;;;;;;;;;5005091;28;20469;-72
2021/07/19 07:14:02;;;;;;;0.38;0.38;;;;;;;;;;4985244;28;20023;-72
2021/07/19 07:16:27;;;;;;;0.35;0.35;;;;;;;;;;4997359;28;20147;-71
2021/07/19 07:18:53;;;;;;;0.70;0.60;;;;;;;;;;5004666;28;20060;-72
2021/07/19 07:21:18;;;;;;;0.40;0.40;;;;;;;;;;4991222;28;20038;-72
2021/07/19 07:23:44;;;;;;;0.40;0.40;;;;;;;;;;4991048;28;20042;-72
2021/07/19 07:26:09;;;;;;;0.20;0.20;;;;;;;;;;5003104;28;20034;-72
2021/07/19 07:28:35;;;;;;;0.32;0.32;;;;;;;;;;4999945;28;20027;-72
2021/07/19 07:31:03;;;;;;;0.30;0.30;;;;;;;;;;5003691;28;20407;-73
2021/07/19 07:33:28;;;;;;;0.35;0.35;;;;;;;;;;4999865;28;20022;-72
2021/07/19 07:35:54;;;;;;;0.40;0.38;;;;;;;;;;4999354;28;20025;-72
2021/07/19 07:38:20;;;;;;;0.90;0.50;;;;;;;;;;5004796;28;20018;-72
2021/07/19 07:40:45;;;;;;;0.35;0.35;;;;;;;;;;5003188;28;20037;-72
2021/07/19 07:43:10;;;;;;;0.70;0.32;;;;;;;;;;5005185;28;20856;-72
2021/07/19 07:45:38;;;;;;;1.52;0.45;;;;;;;;;;5005325;28;20416;-72
2021/07/19 07:48:04;;;;;;;0.30;0.30;;;;;;;;;;4996393;28;20073;-72
2021/07/19 07:50:29;;;;;;;0.43;0.40;;;;;;;;;;4999657;28;20057;-73
2021/07/19 07:52:54;;;;;;;0.20;0.20;;;;;;;;;;4998229;28;20040;-72
2021/07/19 07:55:20;;;;;;;0.20;0.20;;;;;;;;;;5006280;28;20034;-73
2021/07/19 07:57:45;;;;;;;0.40;0.40;;;;;;;;;;4998476;28;20081;-72
2021/07/19 08:00:12;;;;;;;0.30;0.30;;;;;;;;;;5003287;28;20053;-73
2021/07/19 08:02:38;;;;;;;0.50;0.47;;;;;;;;;;5005024;28;20030;-78
2021/07/19 08:05:06;;;;;;;0.57;0.45;;;;;;;;;;4993902;28;20037;-77
2021/07/19 08:07:31;;;;;;;0.30;0.30;;;;;;;;;;4985991;28;20042;-77
2021/07/19 08:09:56;;;;;;;0.35;0.35;;;;;;;;;;5006717;28;20034;-77
2021/07/19 08:12:22;;;;;;;0.30;0.30;;;;;;;;;;5001718;28;20034;-77
2021/07/19 08:14:47;;;;;;;0.30;0.30;;;;;;;;;;5004309;28;20470;-76
2021/07/19 08:17:12;;;;;;;0.40;0.40;;;;;;;;;;5000010;28;20030;-77
2021/07/19 08:19:38;;;;;;;0.30;0.30;;;;;;;;;;4996986;28;20027;-76
2021/07/19 08:22:03;;;;;;;0.10;0.10;;;;;;;;;;5004999;28;20030;-76
2021/07/19 08:24:31;;;;;;;0.65;0.50;;;;;;;;;;4989309;28;20017;-77
2021/07/19 08:26:56;;;;;;;0.30;0.30;;;;;;;;;;4987210;28;20030;-79
2021/07/19 08:29:22;;;;;;;0.40;0.40;;;;;;;;;;5006110;28;20385;-78
2021/07/19 08:31:47;;;;;;;0.60;0.40;;;;;;;;;;4984971;28;20416;-78
2021/07/19 08:34:12;;;;;;;0.60;0.50;;;;;;;;;;5003799;28;20076;-76
2021/07/19 08:36:38;;;;;;;0.73;0.30;;;;;;;;;;5000996;28;20029;-78
2021/07/19 08:39:04;;;;;;;0.33;0.30;;;;;;;;;;4994225;28;20142;-77
2021/07/19 08:41:29;;;;;;;0.70;0.43;;;;;;;;;;5009520;28;20034;-78
2021/07/19 08:43:56;;;;;;;0.30;0.30;;;;;;;;;;5005435;28;20476;-76
2021/07/19 08:46:24;;;;;;;0.30;0.30;;;;;;;;;;5015802;28;20686;-76
2021/07/19 08:48:52;;;;;;;0.30;0.30;;;;;;;;;;5010263;28;20500;-77
2021/07/19 08:51:18;;;;;;;0.28;0.28;;;;;;;;;;5002708;28;20030;-77
2021/07/19 08:53:43;;;;;;;0.57;0.30;;;;;;;;;;5011340;28;20259;-77
2021/07/19 08:56:09;;;;;;;0.40;0.40;;;;;;;;;;4988164;28;20483;-76
2021/07/19 08:58:35;;;;;;;0.30;0.30;;;;;;;;;;4988674;28;20042;-77
2021/07/19 09:01:02;;;;;;;0.30;0.30;;;;;;;;;;4999136;28;20062;-77
2021/07/19 09:03:27;;;;;;;;;;;;;;;;;;4986834;28;20030;-78
2021/07/19 09:05:53;;;;;;;0.23;0.23;;;;;;;;;;5002881;28;19917;-78
2021/07/19 09:08:18;;;;;;;0.90;0.40;;;;;;;;;;5006012;28;20140;-78
2021/07/19 09:10:43;;;;;;;0.30;0.30;;;;;;;;;;5008509;28;20030;-77
2021/07/19 09:13:19;;;;;;;0.20;0.20;;;;;;;;;;5006398;28;20064;-77
2021/07/19 09:15:45;;;;;;;0.52;0.38;;;;;;;;;;5004019;28;20021;-78
2021/07/19 09:18:19;;;;;;;0.50;0.40;;;;;;;;;;4999343;28;20408;-77
2021/07/19 09:20:44;;;;;;;0.47;0.47;;;;;;;;;;5005570;28;20029;-78
2021/07/19 09:23:11;;;;;;;2.13;0.50;;;;;;;;;;4998386;28;20053;-77
2021/07/19 09:25:36;;;;;;;1.30;0.55;;;;;;;;;;5003041;28;20034;-78
2021/07/19 09:28:02;;;;;;;0.30;0.30;;;;;;;;;;5009935;28;20397;-77
2021/07/19 09:30:28;;;;;;;0.80;0.30;;;;;;;;;;4983488;28;20077;-77
2021/07/19 09:33:06;;;;;;;0.57;0.40;;;;;;;;;;5003070;28;20041;-78
2021/07/19 09:35:32;;;;;;;0.30;0.30;;;;;;;;;;4984268;28;20100;-78
2021/07/19 09:38:02;;;;;;;0.30;0.30;;;;;;;;;;5000901;28;20125;-78
2021/07/19 09:40:28;;;;;;;0.28;0.22;;;;;;;;;;5006078;28;20035;-78
2021/07/19 09:42:54;;;;;;;0.30;0.30;;;;;;;;;;5007155;28;20022;-78
2021/07/19 09:45:23;;;;;;;0.30;0.30;;;;;;;;;;5001584;28;20391;-78
2021/07/19 09:47:51;;;;;;;0.20;0.20;;;;;;;;;;5007422;28;20025;-78
2021/07/19 09:50:17;;;;;;;0.32;0.32;;;;;;;;;;5005872;28;20060;-78
2021/07/19 09:52:43;;;;;;;0.20;0.20;;;;;;;;;;5001566;28;20037;-77
2021/07/19 09:55:18;;;;;;;0.60;0.30;;;;;;;;;;5006472;28;20405;-77
2021/07/19 09:57:51;;;;;;;0.20;0.20;;;;;;;;;;5001852;28;20025;-77
2021/07/19 10:00:21;;;;;;;0.30;0.20;;;;;;;;;;5017342;28;20080;-78
2021/07/19 10:02:46;;;;;;;0.30;0.30;;;;;;;;;;5000917;28;20171;-78
2021/07/19 10:05:21;;;;;;;0.20;0.20;;;;;;;;;;5003782;28;20121;-78
2021/07/19 10:07:49;;;;;;;0.30;0.30;;;;;;;;;;5023295;28;20037;-78
2021/07/19 10:10:17;;;;;;;0.30;0.30;;;;;;;;;;5006653;28;20064;-77
2021/07/19 10:12:42;;;;;;;0.20;0.20;;;;;;;;;;5000412;28;20160;-78
2021/07/19 10:15:11;;;;;;;0.50;0.20;;;;;;;;;;4988791;28;20552;-78
2021/07/19 10:17:36;;;;;;;0.20;0.20;;;;;;;;;;5004706;28;20053;-79
2021/07/19 10:20:02;;;;;;;0.63;0.30;;;;;;;;;;4986082;28;20119;-76
2021/07/19 10:22:27;;;;;;;0.20;0.20;;;;;;;;;;5006820;28;20080;-77
2021/07/19 10:24:55;;;;;;;0.30;0.30;;;;;;;;;;5000446;28;20092;-77
2021/07/19 10:27:22;;;;;;;0.13;0.13;;;;;;;;;;5007590;28;20129;-78
2021/07/19 10:29:47;;;;;;;;;;;;;;;;;;4982647;28;20034;-77
2021/07/19 10:32:16;;;;;;;0.30;0.30;;;;;;;;;;5006116;28;20486;-77
2021/07/19 10:34:42;;;;;;;0.40;0.30;;;;;;;;;;4997925;28;20106;-77
2021/07/19 10:37:09;;;;;;;0.82;0.40;;;;;;;;;;4987737;28;20046;-78
2021/07/19 10:39:41;;;;;;;0.38;0.38;;;;;;;;;;4993785;28;20267;-76
2021/07/19 10:42:08;;;;;;;0.43;0.40;;;;;;;;;;5018617;28;20058;-76
2021/07/19 10:44:36;;;;;;;0.30;0.30;;;;;;;;;;5015439;28;20042;-76
2021/07/19 10:47:22;;;;;;;0.30;0.30;;;;;;;;;;4995118;28;20030;-76
2021/07/19 10:49:57;;;;;;;0.40;0.40;;;;;;;;;;4992128;28;20041;-78
2021/07/19 10:52:33;;;;;;;0.25;0.25;;;;;;;;;;4990814;28;20042;-76
2021/07/19 10:55:02;;;;;;;0.23;0.23;;;;;;;;;;5008254;28;20449;-78
2021/07/19 10:57:37;;;;;;;0.30;0.13;;;;;;;;;;5013475;28;20027;-77
2021/07/19 11:00:23;;;;;;;0.30;0.30;;;;;;;;;;4990870;28;20033;-77
2021/07/19 11:02:59;;;;;;;0.27;0.27;;;;;;;;;;5006351;28;20060;-76
2021/07/19 11:05:31;;;;;;;0.73;0.40;;;;;;;;;;5003870;28;20040;-77
2021/07/19 11:07:57;;;;;;;0.28;0.28;;;;;;;;;;4982121;28;20093;-76
2021/07/19 11:10:22;;;;;;;0.30;0.30;;;;;;;;;;5007314;28;20487;-76
2021/07/19 11:12:47;;;;;;;0.20;0.20;;;;;;;;;;5008637;28;20030;-76
2021/07/19 11:15:13;;;;;;;0.40;0.40;;;;;;;;;;5008855;28;20115;-76
2021/07/19 11:17:38;;;;;;;0.40;0.20;;;;;;;;;;4996054;28;20052;-76
2021/07/19 11:20:15;;;;;;;0.28;0.28;;;;;;;;;;4986490;28;20622;-75
2021/07/19 11:22:40;;;;;;;0.32;0.30;;;;;;;;;;4993713;28;20026;-76
2021/07/19 11:25:10;;;;;;;0.20;0.20;;;;;;;;;;5003551;28;20212;-76
2021/07/19 11:27:40;;;;;;;0.80;0.40;;;;;;;;;;4985656;28;20434;-76
2021/07/19 11:30:06;;;;;;;0.73;0.15;;;;;;;;;;5007617;28;20029;-77
2021/07/19 11:32:32;;;;;;;0.37;0.37;;;;;;;;;;5006479;28;20026;-77
2021/07/19 11:35:23;;;;;;;0.38;0.25;;;;;;;;;;5006651;28;20022;-76
2021/07/19 11:37:50;;;;;;;0.30;0.30;;;;;;;;;;5013191;28;20050;-77
2021/07/19 11:40:32;;;;;;;0.10;0.10;;;;;;;;;;5007944;28;20391;-77
2021/07/19 11:43:15;;;;;;;0.20;0.20;;;;;;;;;;5002823;28;20388;-77
2021/07/19 11:45:41;;;;;;;1.10;0.20;;;;;;;;;;5001359;28;20026;-77
2021/07/19 11:48:07;;;;;;;0.10;0.10;;;;;;;;;;5004083;28;20026;-77
2021/07/19 11:50:32;;;;;;;0.17;0.17;;;;;;;;;;5007525;28;20298;-77
2021/07/19 11:52:58;;;;;;;0.22;0.22;;;;;;;;;;4993415;28;20481;-76
2021/07/19 11:55:24;;;;;;;0.40;0.40;;;;;;;;;;5005755;28;20029;-76
2021/07/19 11:58:07;;;;;;;0.43;0.25;;;;;;;;;;4993565;28;20030;-77
2021/07/19 12:00:34;;;;;;;0.28;0.17;;;;;;;;;;4999095;28;20036;-76
2021/07/19 12:03:11;;;;;;;0.38;0.20;;;;;;;;;;5002516;28;20032;-75
2021/07/19 12:05:37;;;;;;;0.10;0.10;;;;;;;;;;5003171;28;20027;-76
2021/07/19 12:08:07;;;;;;;0.15;0.10;;;;;;;;;;4994573;28;20096;-76
2021/07/19 12:10:33;;;;;;;0.20;0.20;;;;;;;;;;5002078;28;20043;-77
2021/07/19 12:13:06;;;;;;;0.30;0.28;;;;;;;;;;5004340;28;20233;-77
2021/07/19 12:15:31;;;;;;;0.20;0.17;;;;;;;;;;4999708;28;20156;-76
2021/07/19 12:17:57;;;;;;;0.20;0.20;;;;;;;;;;4999076;28;20116;-76
2021/07/19 12:20:28;;;;;;;0.10;0.10;;;;;;;;;;5002550;28;20029;-77
2021/07/19 12:22:54;;;;;;;0.20;0.20;;;;;;;;;;5002981;28;20536;-76
2021/07/19 12:25:19;;;;;;;0.57;0.30;;;;;;;;;;5006099;28;20057;-78
2021/07/19 12:27:54;;;;;;;0.57;0.20;;;;;;;;;;4996922;28;20264;-78
2021/07/19 12:30:22;;;;;;;0.52;0.32;;;;;;;;;;5003776;28;20022;-78
2021/07/19 12:32:50;;;;;;;0.25;0.20;;;;;;;;;;5007683;28;20121;-78
2021/07/19 12:35:19;;;;;;;0.10;0.10;;;;;;;;;;5007760;28;20034;-78
2021/07/19 12:37:52;;;;;;;0.45;0.25;;;;;;;;;;4995118;28;20044;-79
2021/07/19 12:40:17;;;;;;;0.38;0.15;;;;;;;;;;4985657;28;20040;-79
2021/07/19 12:42:45;;;;;;;0.40;0.20;;;;;;;;;;5013253;28;20033;-79
2021/07/19 12:45:12;;;;;;;0.50;0.30;;;;;;;;;;5006428;28;20022;-79
2021/07/19 12:47:38;;;;;;;0.68;0.40;;;;;;;;;;5006803;28;20033;-79
2021/07/19 12:50:04;;;;;;;0.43;0.28;;;;;;;;;;5004215;28;20026;-79
2021/07/19 12:52:31;;;;;;;0.22;0.20;;;;;;;;;;5005029;28;20046;-78
2021/07/19 12:55:00;;;;;;;0.10;0.10;;;;;;;;;;5014803;28;20041;-80
2021/07/19 12:57:26;;;;;;;0.50;0.25;;;;;;;;;;5004998;28;20033;-78
2021/07/19 12:59:52;;;;;;;0.25;0.20;;;;;;;;;;4995834;28;20025;-80
2021/07/19 13:02:18;;;;;;;0.28;0.17;;;;;;;;;;4995500;28;20400;-79
2021/07/19 13:04:50;;;;;;;0.77;0.20;;;;;;;;;;4997698;28;20082;-79
2021/07/19 13:07:25;;;;;;;0.13;0.10;;;;;;;;;;5008097;28;20034;-79
2021/07/19 13:09:55;;;;;;;0.47;0.20;;;;;;;;;;5022594;28;20484;-79
2021/07/19 13:12:21;;;;;;;0.95;0.40;;;;;;;;;;5004095;28;20048;-78
2021/07/19 13:14:49;;;;;;;0.40;0.22;;;;;;;;;;5004885;28;20032;-79
2021/07/19 13:17:19;;;;;;;0.35;0.10;;;;;;;;;;5008073;28;20037;-80
2021/07/19 13:19:51;;;;;;;0.43;0.22;;;;;;;;;;5008697;28;21010;-78
2021/07/19 13:22:17;;;;;;;0.28;0.28;;;;;;;;;;5003636;28;20035;-80
2021/07/19 13:24:46;;;;;;;0.15;0.10;;;;;;;;;;5011523;28;20024;-79
2021/07/19 13:27:15;;;;;;;0.82;0.40;;;;;;;;;;4990084;28;20104;-80
2021/07/19 13:29:42;;;;;;;0.28;0.28;;;;;;;;;;4996160;28;20026;-79
2021/07/19 13:32:12;;;;;;;0.55;0.20;;;;;;;;;;4981609;28;20046;-79
2021/07/19 13:34:37;;;;;;;0.20;0.20;;;;;;;;;;5008713;28;20033;-78
2021/07/19 13:37:02;;;;;;;;;;;;;;;;;;5006388;28;20411;-79
2021/07/19 13:39:29;;;;;;;0.40;0.40;;;;;;;;;;5009456;28;19960;-79
2021/07/19 13:42:04;;;;;;;0.10;0.10;;;;;;;;;;4992489;28;20279;-79
2021/07/19 13:44:31;;;;;;;0.10;0.10;;;;;;;;;;5016364;28;20030;-78
2021/07/19 13:46:56;;;;;;;0.10;0.10;;;;;;;;;;4996494;28;20017;-79
2021/07/19 13:49:21;;;;;;;0.98;0.30;;;;;;;;;;5017802;28;20049;-73
2021/07/19 13:51:47;;;;;;;3.40;0.45;;;;;;;;;;5005610;28;20131;-74
2021/07/19 13:54:12;;;;;;;0.85;0.30;;;;;;;;;;5017636;28;20017;-74
2021/07/19 13:56:37;;;;;;;0.43;0.40;;;;;;;;;;5011874;28;20026;-74
2021/07/19 13:59:05;;;;;;;0.65;0.30;;;;;;;;;;5004186;28;20022;-74
2021/07/19 14:01:35;;;;;;;0.30;0.25;;;;;;;;;;4995836;28;20038;-74
2021/07/19 14:04:00;;;;;;;0.40;0.20;;;;;;;;;;5004518;28;20492;-73
2021/07/19 14:06:28;;;;;;;0.17;0.17;;;;;;;;;;4987461;28;20056;-75
2021/07/19 14:08:56;;;;;;;0.35;0.30;;;;;;;;;;5003991;28;20033;-77
2021/07/19 14:11:21;;;;;;;1.35;0.20;;;;;;;;;;5005077;28;20033;-77
2021/07/19 14:13:47;;;;;;;0.20;0.15;;;;;;;;;;4997796;28;20033;-76
2021/07/19 14:16:14;;;;;;;0.10;0.10;;;;;;;;;;4981908;28;20037;-77
2021/07/19 14:18:40;;;;;;;0.20;0.20;;;;;;;;;;5002432;28;20038;-77
2021/07/19 14:21:07;;;;;;;0.93;0.20;;;;;;;;;;5002593;28;20042;-77
2021/07/19 14:23:35;;;;;;;0.10;0.10;;;;;;;;;;5004008;28;20018;-77
2021/07/19 14:26:03;;;;;;;0.20;0.05;;;;;;;;;;5003225;28;20123;-77
2021/07/19 14:28:29;;;;;;;0.38;0.20;;;;;;;;;;5006638;28;20025;-78
2021/07/19 14:30:54;;;;;;;0.40;0.20;;;;;;;;;;4995173;28;20030;-79
2021/07/19 14:33:20;;;;;;;0.27;0.27;;;;;;;;;;5004547;28;20036;-79
2021/07/19 14:35:45;;;;;;;0.10;0.10;;;;;;;;;;4987499;28;20140;-78
2021/07/19 14:38:11;;;;;;;0.40;0.17;;;;;;;;;;4988856;28;20443;-79
2021/07/19 14:40:36;;;;;;;0.30;0.20;;;;;;;;;;4983788;28;20034;-79
2021/07/19 14:43:02;;;;;;;0.20;0.20;;;;;;;;;;4986183;28;20049;-78
2021/07/19 14:45:27;;;;;;;0.80;0.37;;;;;;;;;;5007479;28;20025;-78